Time;durP1;ratioP1;P1;durP2;ratioP2;P2;SDS_P1;SDS_P2;PMS_P1;PMS_P2;Temp;Humidity;BMP_temperature;BMP_pressure;BME280_temperature;BME280_humidity;BME280_pressure;Samples;Min_cycle;Max_cycle;Signal;HPM_P1;HPM_P2
2024/04/01 00:01:40;;;;;;;;;;;;;;;16.25;53.79;100643.84;5016441;28;2584;-53
2024/04/01 00:04:05;;;;;;;;;;;;;;;16.15;53.80;100644.53;5037493;28;1015;-57
2024/04/01 00:06:31;;;;;;;;;;;;;;;16.07;53.51;100638.94;5036918;28;1064;-57
2024/04/01 00:08:56;;;;;;;;;;;;;;;16.51;54.60;100639.28;5037820;28;1015;-56
2024/04/01 00:11:22;;;;;;;;;;;;;;;17.71;53.25;100645.28;5037382;28;1103;-55
2024/04/01 00:13:48;;;;;;;;;;;;;;;17.13;53.94;100638.28;5037871;28;1906;-55
2024/04/01 00:16:14;;;;;;;;;;;;;;;16.73;54.23;100645.59;5037622;28;1107;-54
2024/04/01 00:18:40;;;;;;;;;;;;;;;16.49;54.26;100637.69;5037329;28;1179;-56
2024/04/01 00:21:06;;;;;;;;;;;;;;;16.45;53.91;100637.06;5037672;28;1114;-55
2024/04/01 00:23:31;;;;;;;;;;;;;;;16.29;53.69;100634.72;5037575;28;1039;-56
2024/04/01 00:25:57;;;;;;;;;;;;;;;16.14;53.83;100639.31;5037425;28;1020;-54
2024/04/01 00:28:22;;;;;;;;;;;;;;;16.05;53.92;100642.66;5037464;28;1063;-59
2024/04/01 00:30:48;;;;;;;;;;;;;;;17.11;54.41;100635.72;5037320;28;1108;-55
2024/04/01 00:33:13;;;;;;;;;;;;;;;17.58;53.05;100647.22;5032307;28;1902;-56
2024/04/01 00:35:39;;;;;;;;;;;;;;;16.89;54.08;100642.66;5037012;28;1200;-54
2024/04/01 00:38:05;;;;;;;;;;;;;;;16.65;54.08;100640.88;5036987;28;981;-53
2024/04/01 00:40:30;;;;;;;;;;;;;;;16.43;54.11;100641.66;5037219;28;1071;-57
2024/04/01 00:43:05;;;;;;;;;;;;;;;16.33;53.68;100641.47;5036428;28;1055;-59
2024/04/01 00:45:30;;;;;;;;;;;;;;;16.81;54.70;100646.84;5037666;28;1118;-57
2024/04/01 00:47:59;;;;;;;;;;;;;;;17.62;53.07;100632.72;5036624;28;1211;-55
2024/04/01 00:50:27;;;;;;;;;;;;;;;16.93;54.26;100635.31;5037167;28;1048;-59
2024/04/01 00:52:53;;;;;;;;;;;;;;;16.65;54.08;100635.56;5036664;28;1963;-57
2024/04/01 00:55:19;;;;;;;;;;;;;;;16.55;53.70;100641.69;5035732;28;1027;-53
2024/04/01 00:57:45;;;;;;;;;;;;;;;16.24;54.03;100643.00;5052087;28;1055;-56
2024/04/01 01:00:11;;;;;;;;;;;;;;;16.22;54.00;100638.75;5037002;28;1267;-56
2024/04/01 01:02:36;;;;;;;;;;;;;;;16.10;53.93;100638.69;5018622;28;2692;-58
2024/04/01 01:05:02;;;;;;;;;;;;;;;16.64;54.67;100636.53;5036795;28;1210;-55
2024/04/01 01:07:27;;;;;;;;;;;;;;;16.91;53.07;100484.91;5051756;28;1182;-61
2024/04/01 01:09:53;;;;;;;;;;;;;;;17.17;53.77;100629.06;5036894;28;1199;-59
2024/04/01 01:12:19;;;;;;;;;;;;;;;16.78;53.97;100624.03;5036538;28;1962;-55
2024/04/01 01:14:45;;;;;;;;;;;;;;;16.56;54.05;100624.78;5051220;28;1066;-56
2024/04/01 01:17:11;;;;;;;;;;;;;;;16.38;53.98;100625.22;5036637;28;1072;-58
2024/04/01 01:19:37;;;;;;;;;;;;;;;16.28;53.70;100623.22;5018736;28;858;-56
2024/04/01 01:22:05;;;;;;;;;;;;;;;16.14;53.54;100624.25;5036394;28;1047;-56
2024/04/01 01:24:32;;;;;;;;;;;;;;;16.56;54.50;100624.78;5035882;28;1011;-58
2024/04/01 01:26:58;;;;;;;;;;;;;;;17.73;53.35;100624.72;5036512;28;1116;-56
2024/04/01 01:29:24;;;;;;;;;;;;;;;17.15;53.82;100623.03;5036396;28;1032;-58
2024/04/01 01:31:49;;;;;;;;;;;;;;;16.74;54.21;100617.25;5031787;28;2400;-57
2024/04/01 01:34:15;;;;;;;;;;;;;;;16.60;53.92;100619.13;5051288;28;1909;-58
2024/04/01 01:36:40;;;;;;;;;;;;;;;16.41;53.76;100617.03;5036271;28;1171;-57
2024/04/01 01:39:06;;;;;;;;;;;;;;;16.24;53.78;100616.47;5051525;28;1019;-59
2024/04/01 01:41:32;;;;;;;;;;;;;;;16.17;53.67;100617.88;5018587;28;1144;-56
2024/04/01 01:43:57;;;;;;;;;;;;;;;17.05;54.69;100622.84;5035509;28;900;-58
2024/04/01 01:46:22;;;;;;;;;;;;;;;17.59;53.11;100617.84;5036095;28;1098;-60
2024/04/01 01:48:48;;;;;;;;;;;;;;;16.86;54.25;100623.44;5035614;28;1000;-57
2024/04/01 01:51:13;;;;;;;;;;;;;;;16.67;54.03;100630.16;5035893;28;1123;-57
2024/04/01 01:53:39;;;;;;;;;;;;;;;16.44;54.14;100622.09;5036383;28;1905;-58
2024/04/01 01:56:05;;;;;;;;;;;;;;;16.35;53.67;100620.97;5035541;28;1222;-58
2024/04/01 01:58:30;;;;;;;;;;;;;;;16.21;53.90;100614.03;5036969;28;1093;-59
2024/04/01 02:00:56;;;;;;;;;;;;;;;16.12;53.76;100620.00;5042242;28;2393;-58
2024/04/01 02:03:21;;;;;;;;;;;;;;;16.85;54.91;100614.63;5042451;28;1163;-56
2024/04/01 02:05:49;;;;;;;;;;;;;;;17.80;53.08;100630.38;5042784;28;1395;-57
2024/04/01 02:08:15;;;;;;;;;;;;;;;17.04;54.03;100622.97;5042411;28;864;-59
2024/04/01 02:10:40;;;;;;;;;;;;;;;16.73;54.08;100618.22;5042431;28;1095;-57
2024/04/01 02:13:09;;;;;;;;;;;;;;;16.58;54.20;100625.53;5042774;28;1910;-57
2024/04/01 02:15:34;;;;;;;;;;;;;;;16.38;54.22;100620.75;5042024;28;1167;-57
2024/04/01 02:18:00;;;;;;;;;;;;;;;16.24;53.61;100621.78;5042265;28;1008;-58
2024/04/01 02:20:26;;;;;;;;;;;;;;;16.17;53.57;100617.88;5042031;28;1126;-59
2024/04/01 02:22:52;;;;;;;;;;;;;;;17.24;54.24;100627.66;5042331;28;1055;-56
2024/04/01 02:25:17;;;;;;;;;;;;;;;17.52;53.31;100619.28;5042429;28;1151;-56
2024/04/01 02:27:47;;;;;;;;;;;;;;;16.92;54.17;100622.09;5041843;28;1098;-57
2024/04/01 02:30:12;;;;;;;;;;;;;;;16.59;54.38;100609.47;5041891;28;1124;-56
2024/04/01 02:32:38;;;;;;;;;;;;;;;16.47;53.76;100615.69;5036711;28;1980;-55
2024/04/01 02:35:04;;;;;;;;;;;;;;;16.36;53.62;100620.03;5041234;28;1219;-55
2024/04/01 02:37:29;;;;;;;;;;;;;;;16.26;53.56;100619.00;5041061;28;1178;-56
2024/04/01 02:39:55;;;;;;;;;;;;;;;16.75;54.83;100622.44;5041918;28;1206;-58
2024/04/01 02:42:20;;;;;;;;;;;;;;;17.74;53.27;100615.78;5041669;28;1055;-54
2024/04/01 02:44:46;;;;;;;;;;;;;;;17.02;53.98;100621.31;5041450;28;1027;-56
2024/04/01 02:47:13;;;;;;;;;;;;;;;16.68;54.10;100618.56;5041636;28;1195;-55
2024/04/01 02:49:38;;;;;;;;;;;;;;;16.53;53.96;100615.25;5042027;28;1083;-55
2024/04/01 02:52:04;;;;;;;;;;;;;;;16.43;53.76;100614.25;5042252;28;1071;-57
2024/04/01 02:54:29;;;;;;;;;;;;;;;16.25;53.98;100612.00;5042239;28;1983;-56
2024/04/01 02:56:55;;;;;;;;;;;;;;;16.16;53.51;100614.34;5041426;28;902;-57
2024/04/01 02:59:20;;;;;;;;;;;;;;;16.08;53.70;100618.56;5041762;28;1219;-58
2024/04/01 03:01:46;;;;;;;;;;;;;;;17.13;54.43;100615.16;5042051;28;1072;-56
2024/04/01 03:04:12;;;;;;;;;;;;;;;17.42;53.45;100613.00;5041981;28;1194;-57
2024/04/01 03:06:37;;;;;;;;;;;;;;;16.85;54.28;100608.47;5040300;28;1196;-58
2024/04/01 03:09:03;;;;;;;;;;;;;;;16.59;53.95;100614.78;5041210;28;1391;-58
2024/04/01 03:11:28;;;;;;;;;;;;;;;16.42;53.82;100616.06;5038636;28;1143;-54
2024/04/01 03:13:54;;;;;;;;;;;;;;;16.33;53.65;100612.25;5039229;28;1977;-59
2024/04/01 03:16:20;;;;;;;;;;;;;;;16.19;53.98;100615.97;5038592;28;1144;-56
2024/04/01 03:18:45;;;;;;;;;;;;;;;17.35;54.19;100618.00;5038540;28;1082;-58
2024/04/01 03:21:12;;;;;;;;;;;;;;;17.20;53.89;100618.19;5033877;28;1173;-59
2024/04/01 03:23:37;;;;;;;;;;;;;;;16.76;54.44;100621.50;5039086;28;911;-57
2024/04/01 03:26:03;;;;;;;;;;;;;;;16.53;54.03;100626.72;5036887;28;1024;-58
2024/04/01 03:28:28;;;;;;;;;;;;;;;16.45;53.68;100620.31;5037295;28;1282;-55
2024/04/01 03:30:54;;;;;;;;;;;;;;;16.33;53.83;100620.22;5038559;28;1074;-55
2024/04/01 03:33:19;;;;;;;;;;;;;;;16.28;54.28;100623.22;5038331;28;1906;-60
2024/04/01 03:35:45;;;;;;;;;;;;;;;17.56;53.74;100628.75;5038615;28;1224;-58
2024/04/01 03:38:10;;;;;;;;;;;;;;;17.29;53.63;100629.94;5038282;28;1066;-58
2024/04/01 03:40:39;;;;;;;;;;;;;;;16.81;54.16;100634.44;5038083;28;1075;-57
2024/04/01 03:43:08;;;;;;;;;;;;;;;16.61;54.24;100635.94;5038195;28;1262;-56
2024/04/01 03:45:33;;;;;;;;;;;;;;;16.46;53.93;100632.59;5037969;28;1029;-57
2024/04/01 03:47:59;;;;;;;;;;;;;;;16.32;53.57;100631.81;5037604;28;1305;-55
2024/04/01 03:50:24;;;;;;;;;;;;;;;16.87;54.82;100633.09;5037641;28;1215;-57
2024/04/01 03:52:51;;;;;;;;;;;;;;;17.57;53.22;100635.75;5037956;28;1977;-55
2024/04/01 03:55:16;;;;;;;;;;;;;;;16.92;53.96;100627.44;5038064;28;1321;-55
2024/04/01 03:57:42;;;;;;;;;;;;;;;16.60;54.33;100639.56;5037789;28;909;-59
2024/04/01 04:00:08;;;;;;;;;;;;;;;16.58;53.41;100642.28;5037355;28;1020;-58
2024/04/01 04:02:34;;;;;;;;;;;;;;;16.39;53.78;100638.38;5038129;28;1009;-58
2024/04/01 04:04:59;;;;;;;;;;;;;;;16.27;53.72;100647.22;5036420;28;1012;-57
2024/04/01 04:07:25;;;;;;;;;;;;;;;16.21;53.70;100648.56;5036878;28;1055;-56
2024/04/01 04:09:51;;;;;;;;;;;;;;;17.11;52.66;100643.72;5036926;28;966;-57
2024/04/01 04:12:17;;;;;;;;;;;;;;;15.88;53.79;100637.56;5037427;28;1090;-59
2024/04/01 04:14:42;;;;;;;;;;;;;;;16.99;53.93;100644.59;5037460;28;1973;-56
2024/04/01 04:17:08;;;;;;;;;;;;;;;16.53;53.22;100639.16;5038051;28;1083;-59
2024/04/01 04:19:33;;;;;;;;;;;;;;;16.05;52.32;100638.19;5037465;28;1007;-57
2024/04/01 04:21:59;;;;;;;;;;;;;;;15.75;51.24;100648.22;5037198;28;985;-57
2024/04/01 04:24:25;;;;;;;;;;;;;;;15.64;50.59;100646.34;5037619;28;1095;-56
2024/04/01 04:26:54;;;;;;;;;;;;;;;15.52;50.03;100653.34;5037775;28;1179;-57
2024/04/01 04:29:19;;;;;;;;;;;;;;;16.92;52.39;100651.34;5037957;28;1043;-56
2024/04/01 04:31:51;;;;;;;;;;;;;;;16.00;52.27;100656.25;5019451;28;1060;-56
2024/04/01 04:34:17;;;;;;;;;;;;;;;15.79;50.99;100654.16;5035797;28;1913;-57
2024/04/01 04:36:42;;;;;;;;;;;;;;;16.30;52.17;100662.94;5032374;28;1104;-58
2024/04/01 04:39:19;;;;;;;;;;;;;;;16.35;52.18;100649.34;5026441;28;1112;-54
2024/04/01 04:41:47;;;;;;;;;;;;;;;15.93;51.26;100661.13;5036830;28;1591;-53
2024/04/01 04:44:13;;;;;;;;;;;;;;;17.26;51.67;100654.09;5032646;28;1423;-56
2024/04/01 04:46:38;;;;;;;;;;;;;;;16.27;52.19;100652.53;5036979;28;1297;-55
2024/04/01 04:49:04;;;;;;;;;;;;;;;16.82;52.97;100656.50;5026860;28;1487;-56
2024/04/01 04:51:29;;;;;;;;;;;;;;;16.81;52.41;100655.69;5037024;28;1345;-57
2024/04/01 04:53:55;;;;;;;;;;;;;;;16.38;51.47;100660.56;5036928;28;1909;-57
2024/04/01 04:56:20;;;;;;;;;;;;;;;16.04;50.50;100665.69;5036517;28;1357;-54
2024/04/01 04:58:46;;;;;;;;;;;;;;;16.40;51.53;100665.75;5037040;28;1341;-54
2024/04/01 05:01:11;;;;;;;;;;;;;;;16.48;51.75;100665.22;5036081;28;1258;-56
2024/04/01 05:03:37;;;;;;;;;;;;;;;16.12;50.94;100657.16;5029485;28;1357;-57
2024/04/01 05:06:02;;;;;;;;;;;;;;;15.97;49.86;100667.03;5036453;28;1136;-57
2024/04/01 05:08:28;;;;;;;;;;;;;;;17.01;50.95;100666.59;5036391;28;1285;-54
2024/04/01 05:10:54;;;;;;;;;;;;;;;16.25;50.54;100660.63;5023705;28;1203;-56
2024/04/01 05:13:20;;;;;;;;;;;;;;;16.39;51.47;100664.94;5036494;28;1902;-54
2024/04/01 05:15:45;;;;;;;;;;;;;;;16.71;50.93;100665.28;5036495;28;1076;-56
2024/04/01 05:18:11;;;;;;;;;;;;;;;16.09;50.73;100665.34;5036584;28;1039;-55
2024/04/01 05:20:36;;;;;;;;;;;;;;;16.08;49.36;100658.34;5035991;28;1150;-55
2024/04/01 05:23:02;;;;;;;;;;;;;;;15.96;48.84;100660.91;5037859;28;1012;-58
2024/04/01 05:25:28;;;;;;;;;;;;;;;15.92;48.38;100662.06;5038482;28;1194;-55
2024/04/01 05:27:53;;;;;;;;;;;;;;;17.07;49.92;100665.25;5037352;28;1039;-55
2024/04/01 05:30:23;;;;;;;;;;;;;;;16.15;50.04;100651.63;5020589;28;1171;-56
2024/04/01 05:32:48;;;;;;;;;;;;;;;16.03;49.24;100666.66;5035749;28;1902;-58
2024/04/01 05:35:16;;;;;;;;;;;;;;;15.82;49.01;100663.69;5036620;28;1070;-56
2024/04/01 05:37:43;;;;;;;;;;;;;;;17.18;49.83;100668.00;5036462;28;1170;-53
2024/04/01 05:40:08;;;;;;;;;;;;;;;16.15;50.54;100663.09;5035917;28;1253;-56
2024/04/01 05:42:34;;;;;;;;;;;;;;;16.08;49.60;100667.16;5036214;28;1124;-56
2024/04/01 05:44:59;;;;;;;;;;;;;;;16.97;50.17;100671.28;5029464;28;1210;-55
2024/04/01 05:47:25;;;;;;;;;;;;;;;16.63;50.53;100666.72;5019292;28;1072;-56
2024/04/01 05:49:50;;;;;;;;;;;;;;;16.16;50.19;100666.59;5030822;28;1184;-55
2024/04/01 05:52:16;;;;;;;;;;;;;;;16.11;49.20;100666.09;5027130;28;1333;-55
2024/04/01 05:54:41;;;;;;;;;;;;;;;16.01;48.51;100663.25;5034026;28;1983;-55
2024/04/01 05:57:06;;;;;;;;;;;;;;;17.34;49.71;100662.34;5030383;28;1168;-52
2024/04/01 05:59:32;;;;;;;;;;;;;;;16.34;50.08;100666.22;5032296;28;1103;-56
2024/04/01 06:01:57;;;;;;;;;;;;;;;16.12;49.48;100665.97;5031895;28;1405;-55
2024/04/01 06:04:24;;;;;;;;;;;;;;;16.00;48.83;100665.06;5036225;28;1045;-56
2024/04/01 06:06:49;;;;;;;;;;;;;;;15.93;48.43;100668.25;5030149;28;1384;-51
2024/04/01 06:09:15;;;;;;;;;;;;;;;16.26;49.29;100670.31;5028408;28;1302;-57
2024/04/01 06:11:41;;;;;;;;;;;;;;;17.04;49.40;100681.44;5035766;28;1380;-59
2024/04/01 06:14:06;;;;;;;;;;;;;;;16.26;49.68;100678.25;5035425;28;1906;-63
2024/04/01 06:16:32;;;;;;;;;;;;;;;16.11;49.05;100679.38;5021962;28;1288;-57
2024/04/01 06:18:57;;;;;;;;;;;;;;;16.14;49.51;100685.31;5028500;28;1088;-59
2024/04/01 06:21:23;;;;;;;;;;;;;;;17.14;49.59;100682.47;5032595;28;1290;-56
2024/04/01 06:23:48;;;;;;;;;;;;;;;16.32;50.10;100681.41;5031717;28;1158;-58
2024/04/01 06:26:14;;;;;;;;;;;;;;;16.25;49.03;100681.00;5034949;28;1419;-56
2024/04/01 06:28:39;;;;;;;;;;;;;;;16.12;48.04;100686.34;5030283;28;1136;-56
2024/04/01 06:31:05;;;;;;;;;;;;;;;16.02;47.92;100679.06;5035686;28;1144;-56
2024/04/01 06:33:33;;;;;;;;;;;;;;;15.94;47.20;100692.00;5034982;28;1906;-58
2024/04/01 06:36:01;;;;;;;;;;;;;;;17.20;49.09;100686.50;5034934;28;1041;-58
2024/04/01 06:38:27;;;;;;;;;;;;;;;16.34;49.34;100687.44;5035382;28;1052;-60
2024/04/01 06:40:52;;;;;;;;;;;;;;;16.12;48.59;100689.88;5030225;28;1139;-59
2024/04/01 06:43:18;;;;;;;;;;;;;;;15.94;48.32;100701.75;5035528;28;1063;-59
2024/04/01 06:45:52;;;;;;;;;;;;;;;16.25;48.45;100697.78;5036802;28;1184;-56
2024/04/01 06:48:18;;;;;;;;;;;;;;;17.15;48.81;100700.09;5021402;28;1068;-58
2024/04/01 06:50:43;;;;;;;;;;;;;;;16.29;49.31;100695.75;5026862;28;1044;-57
2024/04/01 06:53:09;;;;;;;;;;;;;;;16.23;48.49;100699.69;5038535;28;1965;-57
2024/04/01 06:55:35;;;;;;;;;;;;;;;17.46;48.83;100704.88;5033568;28;1147;-58
2024/04/01 06:58:01;;;;;;;;;;;;;;;16.65;49.38;100690.50;5038497;28;1107;-56
2024/04/01 07:00:26;;;;;;;;;;;;;;;16.93;49.93;100695.56;5044008;28;1151;-56
2024/04/01 07:02:52;;;;;;;;;;;;;;;17.17;49.61;100698.19;5036417;28;1095;-57
2024/04/01 07:05:17;;;;;;;;;;;;;;;16.53;49.77;100694.94;5038428;28;1273;-57
2024/04/01 07:07:43;;;;;;;;;;;;;;;16.37;48.76;100697.84;5038754;28;1136;-56
2024/04/01 07:10:08;;;;;;;;;;;;;;;16.31;48.12;100698.31;5021235;28;1104;-57
2024/04/01 07:12:33;;;;;;;;;;;;;;;16.16;47.57;100688.66;5038673;28;1971;-58
2024/04/01 07:14:59;;;;;;;;;;;;;;;16.07;47.21;100689.34;5037846;28;1163;-58
2024/04/01 07:17:24;;;;;;;;;;;;;;;15.97;47.14;100690.91;5038117;28;1095;-57
2024/04/01 07:19:50;;;;;;;;;;;;;;;15.94;46.80;100688.50;5027904;28;1110;-58
2024/04/01 07:22:15;;;;;;;;;;;;;;;16.74;48.36;100687.16;5030116;28;1114;-57
2024/04/01 07:24:41;;;;;;;;;;;;;;;16.26;48.19;100680.06;5035900;28;1536;-57
2024/04/01 07:27:06;;;;;;;;;;;;;;;16.76;48.97;100687.06;5038213;28;1067;-57
2024/04/01 07:29:32;;;;;;;;;;;;;;;16.70;49.23;100687.53;5035566;28;1348;-56
2024/04/01 07:31:57;;;;;;;;;;;;;;;16.24;48.82;100681.97;5038231;28;1424;-56
2024/04/01 07:34:23;;;;;;;;;;;;;;;16.20;48.25;100686.66;5038097;28;1910;-55
2024/04/01 07:36:48;;;;;;;;;;;;;;;16.14;47.94;100692.41;5037302;28;1386;-57
2024/04/01 07:39:14;;;;;;;;;;;;;;;16.08;47.38;100693.69;5038587;28;1345;-57
2024/04/01 07:41:39;;;;;;;;;;;;;;;16.05;47.17;100693.09;5038264;28;1321;-57
2024/04/01 07:44:05;;;;;;;;;;;;;;;17.24;47.71;100694.09;5038370;28;1333;-56
2024/04/01 07:46:30;;;;;;;;;;;;;;;16.37;48.32;100696.03;5038418;28;937;-58
2024/04/01 07:48:56;;;;;;;;;;;;;;;16.21;48.29;100695.47;5037898;28;1024;-58
2024/04/01 07:51:21;;;;;;;;;;;;;;;16.09;47.85;100689.22;5038015;28;1174;-57
2024/04/01 07:53:47;;;;;;;;;;;;;;;16.31;48.49;100690.34;5037371;28;1980;-57
2024/04/01 07:56:12;;;;;;;;;;;;;;;16.62;48.37;100680.97;5035598;28;1306;-55
2024/04/01 07:58:38;;;;;;;;;;;;;;;16.22;48.36;100674.13;5032502;28;1023;-58
2024/04/01 08:01:08;;;;;;;;;;;;;;;16.08;48.04;100680.41;5030127;28;1353;-56
2024/04/01 08:03:33;;;;;;;;;;;;;;;16.10;47.41;100677.69;5025736;28;1392;-57
2024/04/01 08:05:59;;;;;;;;;;;;;;;16.53;48.23;100666.53;5037601;28;1064;-59
2024/04/01 08:08:24;;;;;;;;;;;;;;;16.98;48.67;100675.63;5036980;28;1128;-57
2024/04/01 08:10:50;;;;;;;;;;;;;;;16.39;49.14;100672.03;5037008;28;1211;-55
2024/04/01 08:13:15;;;;;;;;;;;;;;;16.23;48.58;100662.53;5028454;28;1962;-59
2024/04/01 08:15:41;;;;;;;;;;;;;;;16.06;47.83;100661.13;5024001;28;1156;-55
2024/04/01 08:18:07;;;;;;;;;;;;;;;16.04;47.48;100657.72;5027609;28;1368;-56
2024/04/01 08:20:32;;;;;;;;;;;;;;;16.02;47.32;100663.16;5022885;28;1181;-59
2024/04/01 08:22:58;;;;;;;;;;;;;;;16.03;46.55;100661.34;5024259;28;1336;-53
2024/04/01 08:25:23;;;;;;;;;;;;;;;16.30;47.35;100657.63;5021636;28;1238;-55
2024/04/01 08:27:49;;;;;;;;;;;;;;;16.48;47.72;100654.59;5022483;28;1404;-58
2024/04/01 08:30:15;;;;;;;;;;;;;;;16.14;47.83;100650.81;5047292;28;1142;-57
2024/04/01 08:32:40;;;;;;;;;;;;;;;16.02;47.75;100656.97;5037232;28;1902;-61
2024/04/01 08:35:06;;;;;;;;;;;;;;;16.39;47.90;100654.31;5036570;28;932;-56
2024/04/01 08:37:31;;;;;;;;;;;;;;;16.61;48.52;100655.38;5036905;28;1280;-56
2024/04/01 08:39:57;;;;;;;;;;;;;;;16.33;48.23;100649.44;5037102;28;1140;-56
2024/04/01 08:42:23;;;;;;;;;;;;;;;16.14;48.04;100650.81;5037706;28;1116;-56
2024/04/01 08:44:48;;;;;;;;;;;;;;;16.10;47.49;100648.50;5019373;28;1508;-57
2024/04/01 08:47:14;;;;;;;;;;;;;;;16.06;46.88;100644.34;5018535;28;1087;-54
2024/04/01 08:49:44;;;;;;;;;;;;;;;16.50;47.95;100648.19;5035812;28;1258;-54
2024/04/01 08:52:12;;;;;;;;;;;;;;;16.52;48.19;100650.72;5036820;28;1304;-53
2024/04/01 08:54:38;;;;;;;;;;;;;;;16.15;48.40;100651.63;5006685;28;1910;-56
2024/04/01 08:57:03;;;;;;;;;;;;;;;16.06;47.85;100639.91;5051997;28;1344;-50
2024/04/01 08:59:29;;;;;;;;;;;;;;;17.01;48.05;100640.88;5036549;28;888;-47
2024/04/01 09:01:54;;;;;;;;;;;;;;;16.42;48.69;100634.63;5019276;28;1125;-55
2024/04/01 09:04:20;;;;;;;;;;;;;;;16.32;47.90;100638.94;5037050;28;1088;-55
2024/04/01 09:06:45;;;;;;;;;;;;;;;16.18;47.41;100643.47;5036414;28;1071;-53
2024/04/01 09:09:12;;;;;;;;;;;;;;;17.22;48.01;100636.69;5035630;28;1055;-52
2024/04/01 09:11:38;;;;;;;;;;;;;;;16.50;48.71;100642.03;5036041;28;1090;-53
2024/04/01 09:14:05;;;;;;;;;;;;;;;16.29;48.52;100621.44;5038918;28;1973;-51
2024/04/01 09:16:31;;;;;;;;;;;;;;;16.25;47.94;100626.13;5036680;28;1403;-51
2024/04/01 09:19:06;;;;;;;;;;;;;;;16.17;47.68;100628.47;5036525;28;1230;-51
2024/04/01 09:21:32;;;;;;;;;;;;;;;16.11;47.37;100642.22;5036110;28;1157;-53
2024/04/01 09:23:58;;;;;;;;;;;;;;;16.67;48.01;100634.59;5035950;28;1255;-55
2024/04/01 09:26:29;;;;;;;;;;;;;;;16.65;48.36;100635.56;5013694;28;1051;-55
2024/04/01 09:28:55;;;;;;;;;;;;;;;16.33;48.22;100627.38;5026214;28;1123;-56
2024/04/01 09:31:20;;;;;;;;;;;;;;;16.22;48.07;100629.00;5050903;28;1040;-55
2024/04/01 09:33:46;;;;;;;;;;;;;;;16.27;47.21;100623.34;5013412;28;1980;-55
2024/04/01 09:36:11;;;;;;;;;;;;;;;16.19;47.18;100620.41;5035197;28;1148;-56
2024/04/01 09:38:37;;;;;;;;;;;;;;;16.08;46.80;100627.34;5017917;28;1092;-59
2024/04/01 09:41:03;;;;;;;;;;;;;;;16.71;47.84;100621.00;5035810;28;1123;-52
2024/04/01 09:43:31;;;;;;;;;;;;;;;16.36;47.94;100619.16;5030883;28;1068;-55
2024/04/01 09:45:57;;;;;;;;;;;;;;;16.26;47.67;100611.03;5035365;28;1084;-55
2024/04/01 09:48:23;;;;;;;;;;;;;;;16.20;47.42;100609.69;5035795;28;916;-60
2024/04/01 09:50:49;;;;;;;;;;;;;;;16.16;46.92;100617.00;5035537;28;1128;-55
2024/04/01 09:53:14;;;;;;;;;;;;;;;16.07;46.77;100601.78;5035467;28;1914;-55
2024/04/01 09:55:58;;;;;;;;;;;;;;;16.28;47.56;100607.31;5035708;28;1146;-53
2024/04/01 09:58:27;;;;;;;;;;;;;;;16.60;48.13;100605.03;5030570;28;1155;-54
2024/04/01 10:01:02;;;;;;;;;;;;;;;16.29;48.22;100605.50;5031605;28;1349;-56
2024/04/01 10:03:48;;;;;;;;;;;;;;;16.22;47.53;100593.63;5018426;28;1072;-52
2024/04/01 10:06:24;;;;;;;;;;;;;;;16.14;47.30;100589.75;5004958;28;1180;-52
2024/04/01 10:08:55;;;;;;;;;;;;;;;16.08;47.20;100592.84;5017860;28;1103;-54
2024/04/01 10:11:41;;;;;;;;;;;;;;;16.07;46.65;100590.31;5024398;28;1275;-55
2024/04/01 10:14:25;;;;;;;;;;;;;;;16.34;47.18;100591.88;5032915;28;1910;-55
2024/04/01 10:17:11;;;;;;;;;;;;;;;16.69;48.07;100583.06;5023273;28;1012;-56
2024/04/01 10:19:55;;;;;;;;;;;;;;;16.37;48.00;100581.03;5016414;28;1115;-55
2024/04/01 10:22:39;;;;;;;;;;;;;;;16.27;47.70;100581.72;5022712;28;1185;-54
2024/04/01 10:25:11;;;;;;;;;;;;;;;16.18;47.25;100577.13;5032916;28;1119;-55
2024/04/01 10:27:45;;;;;;;;;;;;;;;16.09;46.94;100583.09;5032444;28;1400;-55
2024/04/01 10:30:20;;;;;;;;;;;;;;;16.10;46.98;100577.66;5028759;28;1053;-55
2024/04/01 10:32:45;;;;;;;;;;;;;;;17.47;47.04;100573.59;5038956;28;1894;-56
2024/04/01 10:35:26;;;;;;;;;;;;;;;16.54;48.45;100571.81;5038959;28;1192;-53
2024/04/01 10:38:11;;;;;;;;;;;;;;;16.39;47.84;100571.16;5039446;28;1306;-56
2024/04/01 10:40:48;;;;;;;;;;;;;;;16.38;47.35;100569.47;5021705;28;1258;-55
2024/04/01 10:43:31;;;;;;;;;;;;;;;16.23;47.51;100568.81;5041237;28;1006;-56
2024/04/01 10:46:23;;;;;;;;;;;;;;;17.12;47.33;100572.75;5017233;28;1096;-54
2024/04/01 10:49:07;;;;;;;;;;;;;;;16.46;48.17;100553.81;5029627;28;1372;-52
2024/04/01 10:51:39;;;;;;;;;;;;;;;16.36;47.90;100548.34;5034703;28;1098;-55
2024/04/01 10:54:05;;;;;;;;;;;;;;;16.26;47.49;100550.00;5050868;28;1910;-56
2024/04/01 10:56:50;;;;;;;;;;;;;;;16.14;47.71;100543.78;5037387;28;1120;-55
2024/04/01 10:59:34;;;;;;;;;;;;;;;16.14;47.01;100536.69;5038455;28;1055;-53
2024/04/01 11:02:15;;;;;;;;;;;;;;;16.07;47.14;100530.13;5037382;28;1174;-56
2024/04/01 11:04:44;;;;;;;;;;;;;;;16.08;47.07;100536.28;5020630;28;1138;-56
2024/04/01 11:07:13;;;;;;;;;;;;;;;16.09;46.64;100536.19;5020587;28;1151;-54
2024/04/01 11:09:38;;;;;;;;;;;;;;;16.06;46.64;100519.63;5037373;28;1132;-55
2024/04/01 11:12:22;;;;;;;;;;;;;;;15.98;46.64;100514.88;5035380;28;1478;-55
2024/04/01 11:14:49;;;;;;;;;;;;;;;16.01;46.26;100510.22;5037887;28;1911;-56
2024/04/01 11:17:16;;;;;;;;;;;;;;;16.95;47.15;100513.78;5018639;28;1188;-56
2024/04/01 11:19:59;;;;;;;;;;;;;;;16.53;47.82;100517.84;5035676;28;1274;-55
2024/04/01 11:22:48;;;;;;;;;;;;;;;16.31;48.01;100505.38;5029982;28;1352;-57
2024/04/01 11:25:14;;;;;;;;;;;;;;;16.19;47.21;100491.22;5031129;28;1588;-56
2024/04/01 11:27:54;;;;;;;;;;;;;;;16.08;47.27;100502.63;5017040;28;1133;-54
2024/04/01 11:30:26;;;;;;;;;;;;;;;16.19;46.73;100498.31;5024782;28;1317;-54
2024/04/01 11:33:00;;;;;;;;;;;;;;;16.33;47.42;100491.97;5024518;28;1922;-56
2024/04/01 11:35:29;;;;;;;;;;;;;;;16.61;47.78;100508.44;5028674;28;1442;-49
2024/04/01 11:38:07;;;;;;;;;;;;;;;16.36;47.77;100492.59;5027020;28;1191;-54
2024/04/01 11:40:33;;;;;;;;;;;;;;;16.23;47.66;100484.69;5037775;28;1067;-56
2024/04/01 11:43:03;;;;;;;;;;;;;;;16.46;47.93;100490.09;5038114;28;1369;-56
2024/04/01 11:45:30;;;;;;;;;;;;;;;16.71;48.26;100480.22;5051225;28;1440;-57
2024/04/01 11:47:55;;;;;;;;;;;;;;;16.44;48.33;100481.38;5035358;28;1372;-55
2024/04/01 11:50:21;;;;;;;;;;;;;;;17.85;47.71;100487.19;5033509;28;1032;-55
2024/04/01 11:53:07;;;;;;;;;;;;;;;16.86;48.89;100475.50;5034253;28;1902;-57
2024/04/01 11:55:33;;;;;;;;;;;;;;;16.58;48.68;100466.19;5025553;28;1322;-55
2024/04/01 11:58:11;;;;;;;;;;;;;;;16.55;48.09;100469.91;5032220;28;1373;-56
2024/04/01 12:00:36;;;;;;;;;;;;;;;16.56;47.78;100462.81;5042237;28;1630;-56
2024/04/01 12:03:02;;;;;;;;;;;;;;;16.47;47.43;100462.56;5037774;28;1180;-50
2024/04/01 12:05:28;;;;;;;;;;;;;;;16.47;46.97;100462.56;5037780;28;1102;-55
2024/04/01 12:07:54;;;;;;;;;;;;;;;16.38;47.01;100460.63;5020126;28;1325;-53
2024/04/01 12:10:20;;;;;;;;;;;;;;;16.23;47.08;100460.81;5053107;28;1261;-55
2024/04/01 12:12:46;;;;;;;;;;;;;;;16.29;46.85;100454.22;5013457;28;1899;-53
2024/04/01 12:15:15;;;;;;;;;;;;;;;16.26;46.65;100446.47;5033382;28;1380;-55
2024/04/01 12:17:41;;;;;;;;;;;;;;;16.27;46.29;100448.16;5037666;28;1392;-55
2024/04/01 12:20:07;;;;;;;;;;;;;;;16.13;46.38;100443.94;5037106;28;1404;-54
2024/04/01 12:22:32;;;;;;;;;;;;;;;16.16;46.46;100441.84;5036494;28;1301;-54
2024/04/01 12:24:58;;;;;;;;;;;;;;;16.14;46.46;100440.28;5051807;28;1086;-53
2024/04/01 12:27:23;;;;;;;;;;;;;;;16.13;46.26;100435.97;5007404;28;1215;-56
2024/04/01 12:29:52;;;;;;;;;;;;;;;16.09;46.27;100432.69;5036231;28;1096;-56
2024/04/01 12:32:20;;;;;;;;;;;;;;;16.13;46.14;100430.66;5042676;28;1441;-53
2024/04/01 12:34:46;;;;;;;;;;;;;;;16.03;46.26;100426.03;5020687;28;1995;-54
2024/04/01 12:37:11;;;;;;;;;;;;;;;16.01;46.18;100421.81;5028806;28;1277;-54
2024/04/01 12:39:43;;;;;;;;;;;;;;;16.08;46.07;100409.75;5018492;28;1129;-55
2024/04/01 12:42:09;;;;;;;;;;;;;;;17.20;46.62;100413.53;5036666;28;1035;-54
2024/04/01 12:44:34;;;;;;;;;;;;;;;16.55;47.54;100403.53;5036915;28;1087;-56
2024/04/01 12:47:00;;;;;;;;;;;;;;;16.44;47.20;100399.06;5018901;28;1278;-55
2024/04/01 12:49:26;;;;;;;;;;;;;;;16.34;47.06;100392.78;5028910;28;1190;-51